createdAt,value
2023-02-02T00:01:00.329Z,2.13
2023-02-02T00:03:27.743Z,2.23
2023-02-02T00:05:54.695Z,2.17
2023-02-02T00:08:21.979Z,1.90
2023-02-02T00:10:50.467Z,2.17
2023-02-02T00:13:17.664Z,2.10
2023-02-02T00:15:44.420Z,2.50
2023-02-02T00:18:11.099Z,2.07
2023-02-02T00:20:37.778Z,2.33
2023-02-02T00:23:04.513Z,1.90
2023-02-02T00:25:31.956Z,3.10
2023-02-02T00:27:58.616Z,2.33
2023-02-02T00:30:25.404Z,1.60
2023-02-02T00:32:53.120Z,2.23
2023-02-02T00:35:20.616Z,2.03
2023-02-02T00:37:47.442Z,1.87
2023-02-02T00:40:14.248Z,2.30
2023-02-02T00:42:40.945Z,1.60
2023-02-02T00:45:17.096Z,1.97
2023-02-02T00:47:46.062Z,2.50
2023-02-02T00:50:21.905Z,2.60
2023-02-02T00:52:49.052Z,2.37
2023-02-02T00:55:16.912Z,2.20
2023-02-02T00:57:44.385Z,2.40
2023-02-02T01:00:17.411Z,2.00
2023-02-02T01:02:44.459Z,2.37
2023-02-02T01:05:12.330Z,2.67
2023-02-02T01:07:40.009Z,2.13
2023-02-02T01:10:09.223Z,2.10
2023-02-02T01:12:36.118Z,2.00
2023-02-02T01:15:03.266Z,1.90
2023-02-02T01:17:29.996Z,1.93
2023-02-02T01:19:56.656Z,2.47
2023-02-02T01:22:23.373Z,2.20
2023-02-02T01:24:50.209Z,1.73
2023-02-02T01:27:16.998Z,2.20
2023-02-02T01:29:43.703Z,2.40
2023-02-02T01:32:11.966Z,1.70
2023-02-02T01:34:41.787Z,2.33
2023-02-02T01:37:09.288Z,2.80
2023-02-02T01:39:36.325Z,2.07
2023-02-02T01:42:10.912Z,2.13
2023-02-02T01:44:53.141Z,1.73
2023-02-02T01:47:23.325Z,1.80
2023-02-02T01:49:50.577Z,2.57
2023-02-02T01:52:19.488Z,5.20
2023-02-02T01:54:50.880Z,2.33
2023-02-02T01:57:25.643Z,2.20
2023-02-02T01:59:54.822Z,2.83
2023-02-02T02:02:21.695Z,2.43
2023-02-02T02:04:50.525Z,2.17
2023-02-02T02:07:17.323Z,3.03
2023-02-02T02:09:44.059Z,2.70
2023-02-02T02:12:15.583Z,2.57
2023-02-02T02:15:03.751Z,2.07
2023-02-02T02:18:07.848Z,2.23
2023-02-02T02:21:16.547Z,2.77
2023-02-02T02:24:23.928Z,2.27
2023-02-02T02:27:04.075Z,2.70
2023-02-02T02:29:52.342Z,1.90
2023-02-02T02:32:37.022Z,1.53
2023-02-02T02:35:09.627Z,1.80
2023-02-02T02:37:50.384Z,2.43
2023-02-02T02:40:29.357Z,2.33
2023-02-02T02:42:59.727Z,2.23
2023-02-02T02:45:28.604Z,2.47
2023-02-02T02:47:55.711Z,2.07
2023-02-02T02:50:22.731Z,2.40
2023-02-02T02:52:56.497Z,2.40
2023-02-02T02:55:25.500Z,2.20
2023-02-02T02:58:06.403Z,2.53
2023-02-02T03:00:39.327Z,2.17
2023-02-02T03:03:27.923Z,2.23
2023-02-02T03:06:13.158Z,2.20
2023-02-02T03:08:46.305Z,1.57
2023-02-02T03:11:15.193Z,2.20
2023-02-02T03:13:43.351Z,2.33
2023-02-02T03:16:11.246Z,1.60
2023-02-02T03:18:38.646Z,2.30
2023-02-02T03:21:05.552Z,2.40
2023-02-02T03:23:32.175Z,2.00
2023-02-02T03:26:00.395Z,2.33
2023-02-02T03:28:28.049Z,2.63
2023-02-02T03:30:56.241Z,2.70
2023-02-02T03:33:23.298Z,2.07
2023-02-02T03:35:50.010Z,2.20
2023-02-02T03:38:16.737Z,2.33
2023-02-02T03:40:43.444Z,2.30
2023-02-02T03:43:10.336Z,2.20
2023-02-02T03:45:37.361Z,2.03
2023-02-02T03:48:05.711Z,1.90
2023-02-02T03:50:32.795Z,2.00
2023-02-02T03:52:59.545Z,1.77
2023-02-02T03:55:26.460Z,1.90
2023-02-02T03:57:53.324Z,2.20
2023-02-02T04:00:20.529Z,2.03
2023-02-02T04:02:47.207Z,2.47
2023-02-02T04:05:14.217Z,2.10
2023-02-02T04:07:40.842Z,1.97
2023-02-02T04:10:07.828Z,2.30
2023-02-02T04:12:34.452Z,1.80
2023-02-02T04:15:01.099Z,2.60
2023-02-02T04:17:27.854Z,2.20
2023-02-02T04:19:58.142Z,2.17
2023-02-02T04:22:26.270Z,2.50
2023-02-02T04:24:53.103Z,2.33
2023-02-02T04:27:19.766Z,2.90
2023-02-02T04:29:46.459Z,1.83
2023-02-02T04:32:16.568Z,2.60
2023-02-02T04:34:43.500Z,2.30
2023-02-02T04:37:11.423Z,1.97
2023-02-02T04:39:38.212Z,1.87
2023-02-02T04:42:05.065Z,2.40
2023-02-02T04:44:31.778Z,2.77
2023-02-02T04:46:58.449Z,3.10
2023-02-02T04:49:25.152Z,5.20
2023-02-02T04:51:51.844Z,4.47
2023-02-02T04:54:18.695Z,3.03
2023-02-02T04:56:45.372Z,2.73
2023-02-02T04:59:12.133Z,2.73
2023-02-02T05:01:39.513Z,5.47
2023-02-02T05:04:06.306Z,2.43
2023-02-02T05:06:33.064Z,2.27
2023-02-02T05:09:01.153Z,2.10
2023-02-02T05:11:27.986Z,2.40
2023-02-02T05:13:55.162Z,2.37
2023-02-02T05:16:23.149Z,2.53
2023-02-02T05:18:56.641Z,2.17
2023-02-02T05:21:23.752Z,2.33
2023-02-02T05:23:50.476Z,2.70
2023-02-02T05:26:23.074Z,2.70
2023-02-02T05:28:49.919Z,2.63
2023-02-02T05:31:16.957Z,3.10
2023-02-02T05:33:43.928Z,3.37
2023-02-02T05:36:10.653Z,1.87
2023-02-02T05:38:37.445Z,3.13
2023-02-02T05:41:04.298Z,2.60
2023-02-02T05:43:32.555Z,2.37
2023-02-02T05:45:59.429Z,2.17
2023-02-02T05:48:26.551Z,2.37
2023-02-02T05:51:02.889Z,2.70
2023-02-02T05:53:33.672Z,1.70
2023-02-02T05:56:00.369Z,2.00
2023-02-02T05:58:28.079Z,2.40
2023-02-02T06:00:56.859Z,2.83
2023-02-02T06:03:23.820Z,2.80
2023-02-02T06:05:50.673Z,1.83
2023-02-02T06:08:17.314Z,2.97
2023-02-02T06:10:44.207Z,3.10
2023-02-02T06:13:11.473Z,2.67
2023-02-02T06:15:38.545Z,2.30
2023-02-02T06:18:06.857Z,2.23
2023-02-02T06:20:33.625Z,2.00
2023-02-02T06:23:00.602Z,2.67
2023-02-02T06:25:27.989Z,2.00
2023-02-02T06:27:58.798Z,1.97
2023-02-02T06:30:25.941Z,1.80
2023-02-02T06:32:52.747Z,1.80
2023-02-02T06:35:19.580Z,1.83
2023-02-02T06:37:46.610Z,1.80
2023-02-02T06:40:13.783Z,2.33
2023-02-02T06:42:41.112Z,2.43
2023-02-02T06:45:08.381Z,1.63
2023-02-02T06:47:35.020Z,1.83
2023-02-02T06:50:01.734Z,1.80
2023-02-02T06:52:28.515Z,2.10
2023-02-02T06:54:55.206Z,1.93
2023-02-02T06:57:21.927Z,1.90
2023-02-02T06:59:48.606Z,1.90
2023-02-02T07:02:15.437Z,2.00
2023-02-02T07:04:42.332Z,1.50
2023-02-02T07:07:09.103Z,1.80
2023-02-02T07:09:36.096Z,2.47
2023-02-02T07:12:02.817Z,2.90
2023-02-02T07:14:29.493Z,1.40
2023-02-02T07:16:56.143Z,1.97
2023-02-02T07:19:22.810Z,2.37
2023-02-02T07:21:49.549Z,2.67
2023-02-02T07:24:16.841Z,1.73
2023-02-02T07:26:43.734Z,2.10
2023-02-02T07:29:14.099Z,1.63
2023-02-02T07:31:41.361Z,2.00
2023-02-02T07:34:08.515Z,2.10
2023-02-02T07:36:35.617Z,1.90
2023-02-02T07:39:04.961Z,1.70
2023-02-02T07:41:33.734Z,1.50
2023-02-02T07:44:00.432Z,1.50
2023-02-02T07:46:27.314Z,2.00
2023-02-02T07:48:57.936Z,3.10
2023-02-02T07:51:25.804Z,2.00
2023-02-02T07:53:54.809Z,1.80
2023-02-02T07:56:22.845Z,2.17
2023-02-02T07:58:52.345Z,2.47
2023-02-02T08:01:20.490Z,2.00
2023-02-02T08:03:47.337Z,2.20
2023-02-02T08:06:18.846Z,1.93
2023-02-02T08:08:46.473Z,2.13
2023-02-02T08:11:14.938Z,2.23
2023-02-02T08:13:43.164Z,1.83
2023-02-02T08:16:10.919Z,2.43
2023-02-02T08:18:38.639Z,2.13
2023-02-02T08:21:08.455Z,1.77
2023-02-02T08:23:36.596Z,2.83
2023-02-02T08:26:19.194Z,2.30
2023-02-02T08:28:48.630Z,2.67
2023-02-02T08:31:21.730Z,2.40
2023-02-02T08:33:49.358Z,2.10
2023-02-02T08:36:18.860Z,2.00
2023-02-02T08:38:46.079Z,2.40
2023-02-02T08:41:15.276Z,2.70
2023-02-02T08:43:42.692Z,2.00
2023-02-02T08:46:15.000Z,2.50
2023-02-02T08:48:42.120Z,2.30
2023-02-02T08:51:11.811Z,1.60
2023-02-02T08:53:38.771Z,1.90
2023-02-02T08:56:16.901Z,3.50
2023-02-02T08:58:51.778Z,2.03
2023-02-02T09:01:24.767Z,2.70
2023-02-02T09:03:56.122Z,2.40
2023-02-02T09:06:28.606Z,1.93
2023-02-02T09:08:55.259Z,1.80
2023-02-02T09:11:22.763Z,2.47
2023-02-02T09:13:53.520Z,1.80
2023-02-02T09:16:21.152Z,2.23
2023-02-02T09:18:47.864Z,2.37
2023-02-02T09:21:16.583Z,2.30
2023-02-02T09:23:44.180Z,2.17
2023-02-02T09:26:15.859Z,2.53
2023-02-02T09:28:48.481Z,1.43
2023-02-02T09:31:15.797Z,2.00
2023-02-02T09:33:43.090Z,2.07
2023-02-02T09:36:15.506Z,2.13
2023-02-02T09:38:42.860Z,2.23
2023-02-02T09:41:24.772Z,2.80
2023-02-02T09:44:00.645Z,2.43
2023-02-02T09:46:55.979Z,2.47
2023-02-02T09:49:31.952Z,1.97
2023-02-02T09:52:08.011Z,1.80
2023-02-02T09:54:42.831Z,2.20
2023-02-02T09:57:17.811Z,2.30
2023-02-02T09:59:46.354Z,2.30
2023-02-02T10:02:28.438Z,2.07
2023-02-02T10:05:02.152Z,2.20
2023-02-02T10:07:39.205Z,1.87
2023-02-02T10:10:33.378Z,2.03
2023-02-02T10:13:13.009Z,1.63
2023-02-02T10:16:04.211Z,1.87
2023-02-02T10:18:48.324Z,1.93
2023-02-02T10:21:46.747Z,2.00
2023-02-02T10:24:23.851Z,1.77
2023-02-02T10:27:04.081Z,3.53
2023-02-02T10:29:49.417Z,2.30
2023-02-02T10:32:24.708Z,1.87
2023-02-02T10:35:12.549Z,1.97
2023-02-02T10:37:46.259Z,1.43
2023-02-02T10:40:15.729Z,2.37
2023-02-02T10:43:24.472Z,1.70
2023-02-02T10:45:52.064Z,1.70
2023-02-02T10:48:32.679Z,1.57
2023-02-02T10:51:02.624Z,1.10
2023-02-02T10:53:31.941Z,1.87
2023-02-02T10:56:12.016Z,1.33
2023-02-02T10:58:57.830Z,1.30
2023-02-02T11:01:24.702Z,1.30
2023-02-02T11:04:11.356Z,1.10
2023-02-02T11:06:49.870Z,1.90
2023-02-02T11:09:41.046Z,1.53
2023-02-02T11:12:20.611Z,1.53
2023-02-02T11:14:52.292Z,1.50
2023-02-02T11:17:24.400Z,1.30
2023-02-02T11:19:52.009Z,1.10
2023-02-02T11:22:26.425Z,1.67
2023-02-02T11:24:53.907Z,1.47
2023-02-02T11:27:24.123Z,1.60
2023-02-02T11:29:56.072Z,1.67
2023-02-02T11:32:32.652Z,1.77
2023-02-02T11:35:13.763Z,1.20
2023-02-02T11:38:01.050Z,1.57
2023-02-02T11:40:31.851Z,1.20
2023-02-02T11:43:02.418Z,1.27
2023-02-02T11:45:41.627Z,1.47
2023-02-02T11:48:20.677Z,1.30
2023-02-02T11:50:54.001Z,1.37
2023-02-02T11:53:32.072Z,1.60
2023-02-02T11:56:11.333Z,1.70
2023-02-02T11:58:50.706Z,1.20
2023-02-02T12:01:29.795Z,1.00
2023-02-02T12:03:58.706Z,1.20
2023-02-02T12:06:38.375Z,1.00
2023-02-02T12:09:14.567Z,1.53
2023-02-02T12:12:15.393Z,1.30
2023-02-02T12:14:48.185Z,1.30
2023-02-02T12:17:48.416Z,2.60
2023-02-02T12:20:28.120Z,1.53
2023-02-02T12:22:54.855Z,1.43
2023-02-02T12:25:44.904Z,1.70
2023-02-02T12:28:52.964Z,1.37
2023-02-02T12:31:44.359Z,2.13
2023-02-02T12:34:43.386Z,1.50
2023-02-02T12:37:25.371Z,1.70
2023-02-02T12:40:05.886Z,1.70
2023-02-02T12:42:49.089Z,1.50
2023-02-02T12:45:31.422Z,1.80
2023-02-02T12:48:13.247Z,1.50
2023-02-02T12:51:04.262Z,1.20
2023-02-02T12:53:40.357Z,1.10
2023-02-02T12:56:30.075Z,1.70
2023-02-02T12:59:27.575Z,1.10
2023-02-02T13:02:30.029Z,1.30
2023-02-02T13:05:29.927Z,1.30
2023-02-02T13:08:01.290Z,1.40
2023-02-02T13:10:37.657Z,1.60
2023-02-02T13:13:16.864Z,2.03
2023-02-02T13:15:47.761Z,1.20
2023-02-02T13:18:20.536Z,1.30
2023-02-02T13:21:02.510Z,3.03
2023-02-02T13:23:33.995Z,1.43
2023-02-02T13:26:06.665Z,1.20
2023-02-02T13:28:54.372Z,2.50
2023-02-02T13:31:27.537Z,1.80
2023-02-02T13:34:22.910Z,1.73
2023-02-02T13:36:56.919Z,1.50
2023-02-02T13:39:34.076Z,2.60
2023-02-02T13:42:02.923Z,1.77
2023-02-02T13:44:35.773Z,1.00
2023-02-02T13:47:21.500Z,1.20
2023-02-02T13:49:53.928Z,1.30
2023-02-02T13:52:49.443Z,1.13
2023-02-02T13:55:39.146Z,1.20
2023-02-02T13:58:31.291Z,1.33
2023-02-02T14:01:06.308Z,1.50
2023-02-02T14:03:44.802Z,1.30
2023-02-02T14:06:14.560Z,1.70
2023-02-02T14:08:46.163Z,1.47
2023-02-02T14:11:21.714Z,1.47
2023-02-02T14:14:09.682Z,1.00
2023-02-02T14:16:36.268Z,1.20
2023-02-02T14:19:05.267Z,1.00
2023-02-02T14:21:32.020Z,1.23
2023-02-02T14:24:21.505Z,1.30
2023-02-02T14:26:52.785Z,1.47
2023-02-02T14:29:31.527Z,1.80
2023-02-02T14:32:27.834Z,3.37
2023-02-02T14:34:58.832Z,4.70
2023-02-02T14:37:28.470Z,1.60
2023-02-02T14:39:58.048Z,1.70
2023-02-02T14:43:11.359Z,1.90
2023-02-02T14:45:39.733Z,3.67
2023-02-02T14:48:06.343Z,1.60
2023-02-02T14:50:41.587Z,4.40
2023-02-02T14:53:14.718Z,2.40
2023-02-02T14:56:04.690Z,2.50
2023-02-02T14:58:39.826Z,1.43
2023-02-02T15:01:23.180Z,3.23
2023-02-02T15:03:57.356Z,3.20
2023-02-02T15:06:43.250Z,4.80
2023-02-02T15:09:37.649Z,5.17
2023-02-02T15:12:04.519Z,2.80
2023-02-02T15:14:33.975Z,5.07
2023-02-02T15:17:24.507Z,5.10
2023-02-02T15:20:00.315Z,18.20
2023-02-02T15:22:38.979Z,11.73
2023-02-02T15:25:17.164Z,22.90
2023-02-02T15:27:56.837Z,15.47
2023-02-02T15:30:26.460Z,7.67
2023-02-02T15:32:53.601Z,17.87
2023-02-02T15:35:26.430Z,17.00
2023-02-02T15:38:01.174Z,12.50
2023-02-02T15:40:30.208Z,8.77
2023-02-02T15:43:03.213Z,11.00
2023-02-02T15:45:48.352Z,21.73
2023-02-02T15:48:23.742Z,17.30
2023-02-02T15:50:54.743Z,11.00
2023-02-02T15:53:27.861Z,15.47
2023-02-02T15:55:56.733Z,19.70
2023-02-02T15:58:26.345Z,9.10
2023-02-02T16:01:02.730Z,6.90
2023-02-02T16:03:38.726Z,7.53
2023-02-02T16:06:07.533Z,4.73
2023-02-02T16:08:37.786Z,3.07
2023-02-02T16:11:09.291Z,3.20
2023-02-02T16:13:37.163Z,2.40
2023-02-02T16:16:07.023Z,2.90
2023-02-02T16:18:36.059Z,4.37
2023-02-02T16:21:11.398Z,1.80
2023-02-02T16:23:39.055Z,3.13
2023-02-02T16:26:07.307Z,3.20
2023-02-02T16:28:34.806Z,2.00
2023-02-02T16:31:02.752Z,1.97
2023-02-02T16:33:36.825Z,1.90
2023-02-02T16:36:26.421Z,3.17
2023-02-02T16:38:55.387Z,2.87
2023-02-02T16:41:36.283Z,1.83
2023-02-02T16:44:43.461Z,1.60
2023-02-02T16:47:39.508Z,2.00
2023-02-02T16:50:26.533Z,1.87
2023-02-02T16:53:01.343Z,1.73
2023-02-02T16:55:43.458Z,2.03
2023-02-02T16:58:19.596Z,2.63
2023-02-02T17:01:15.602Z,2.70
2023-02-02T17:04:01.942Z,2.63
2023-02-02T17:06:42.075Z,2.90
2023-02-02T17:09:35.239Z,2.27
2023-02-02T17:12:05.815Z,3.10
2023-02-02T17:14:36.793Z,2.50
2023-02-02T17:17:05.994Z,1.93
2023-02-02T17:19:33.185Z,1.87
2023-02-02T17:22:02.174Z,2.10
2023-02-02T17:24:29.701Z,1.97
2023-02-02T17:26:56.468Z,1.60
2023-02-02T17:29:23.530Z,1.30
2023-02-02T17:31:51.924Z,1.50
2023-02-02T17:34:18.786Z,1.57
2023-02-02T17:36:45.435Z,1.20
2023-02-02T17:39:12.271Z,1.90
2023-02-02T17:41:39.252Z,1.60
2023-02-02T17:44:06.879Z,4.73
2023-02-02T17:46:35.005Z,3.90
2023-02-02T17:49:02.000Z,3.30
2023-02-02T17:51:30.367Z,2.27
2023-02-02T17:54:00.365Z,2.13
2023-02-02T17:56:27.469Z,2.80
2023-02-02T17:58:54.299Z,3.70
2023-02-02T18:01:21.278Z,3.03
2023-02-02T18:03:48.177Z,2.17
2023-02-02T18:06:14.931Z,3.00
2023-02-02T18:08:41.748Z,2.17
2023-02-02T18:11:12.189Z,3.20
2023-02-02T18:13:39.923Z,2.90
2023-02-02T18:16:07.285Z,4.03
2023-02-02T18:18:34.161Z,3.07
2023-02-02T18:21:01.156Z,2.77
2023-02-02T18:23:28.347Z,3.77
2023-02-02T18:25:55.034Z,2.90
2023-02-02T18:28:21.784Z,2.33
2023-02-02T18:30:48.628Z,3.07
2023-02-02T18:33:19.510Z,3.97
2023-02-02T18:35:47.742Z,2.30
2023-02-02T18:38:14.947Z,3.20
2023-02-02T18:40:41.898Z,2.57
2023-02-02T18:43:08.867Z,3.13
2023-02-02T18:45:36.521Z,2.80
2023-02-02T18:48:03.232Z,2.57
2023-02-02T18:50:29.943Z,2.40
2023-02-02T18:52:56.928Z,1.67
2023-02-02T18:55:24.158Z,2.00
2023-02-02T18:57:51.109Z,1.53
2023-02-02T19:00:18.235Z,1.40
2023-02-02T19:02:45.072Z,1.83
2023-02-02T19:05:30.431Z,1.50
2023-02-02T19:07:58.088Z,3.17
2023-02-02T19:10:27.093Z,1.77
2023-02-02T19:13:19.703Z,1.73
2023-02-02T19:15:49.295Z,1.80
2023-02-02T19:18:22.319Z,1.80
2023-02-02T19:20:51.287Z,2.30
2023-02-02T19:23:20.457Z,1.70
2023-02-02T19:25:54.263Z,1.80
2023-02-02T19:28:30.625Z,1.90
2023-02-02T19:30:59.820Z,1.90
2023-02-02T19:33:39.374Z,2.10
2023-02-02T19:36:13.576Z,2.07
2023-02-02T19:38:40.265Z,2.13
2023-02-02T19:41:18.141Z,1.67
2023-02-02T19:43:47.691Z,2.03
2023-02-02T19:46:23.062Z,2.23
2023-02-02T19:48:52.571Z,2.10
2023-02-02T19:51:44.399Z,2.07
2023-02-02T19:54:35.127Z,1.47
2023-02-02T19:57:13.673Z,2.20
2023-02-02T19:59:42.807Z,2.30
2023-02-02T20:02:48.607Z,2.43
2023-02-02T20:05:21.833Z,1.83
2023-02-02T20:07:55.875Z,1.97
2023-02-02T20:10:29.062Z,1.77
2023-02-02T20:12:56.364Z,1.90
2023-02-02T20:15:34.573Z,1.97
2023-02-02T20:18:04.840Z,2.20
2023-02-02T20:20:41.897Z,1.80
2023-02-02T20:23:27.685Z,1.90
2023-02-02T20:25:54.581Z,2.03
2023-02-02T20:28:36.450Z,2.43
2023-02-02T20:31:05.185Z,2.23
2023-02-02T20:33:33.173Z,2.50
2023-02-02T20:36:02.347Z,1.80
2023-02-02T20:38:37.715Z,1.90
2023-02-02T20:41:05.956Z,1.60
2023-02-02T20:43:32.719Z,1.77
2023-02-02T20:45:59.435Z,1.97
2023-02-02T20:48:27.662Z,2.10
2023-02-02T20:50:54.577Z,2.00
2023-02-02T20:53:21.727Z,1.97
2023-02-02T20:55:48.488Z,1.70
2023-02-02T20:58:15.224Z,2.20
2023-02-02T21:00:42.089Z,2.40
2023-02-02T21:03:08.789Z,2.80
2023-02-02T21:05:35.508Z,2.00
2023-02-02T21:08:02.177Z,1.90
2023-02-02T21:10:29.242Z,1.87
2023-02-02T21:12:56.087Z,2.30
2023-02-02T21:15:23.493Z,1.83
2023-02-02T21:17:50.166Z,2.50
2023-02-02T21:20:17.083Z,2.70
2023-02-02T21:22:43.817Z,2.50
2023-02-02T21:25:11.191Z,2.40
2023-02-02T21:27:41.082Z,3.60
2023-02-02T21:30:10.170Z,2.33
2023-02-02T21:32:37.134Z,3.00
2023-02-02T21:35:05.187Z,2.70
2023-02-02T21:37:40.379Z,2.57
2023-02-02T21:40:13.484Z,3.70
2023-02-02T21:42:44.587Z,3.53
2023-02-02T21:45:20.656Z,2.73
2023-02-02T21:47:59.002Z,3.07
2023-02-02T21:50:31.752Z,3.10
2023-02-02T21:53:17.187Z,3.17
2023-02-02T21:55:45.279Z,3.50
2023-02-02T21:58:14.935Z,3.13
2023-02-02T22:00:41.627Z,4.13
2023-02-02T22:03:23.263Z,3.10
2023-02-02T22:05:50.002Z,3.00
2023-02-02T22:08:24.099Z,3.37
2023-02-02T22:10:51.098Z,3.13
2023-02-02T22:13:19.373Z,3.00
2023-02-02T22:15:48.065Z,3.40
2023-02-02T22:18:18.077Z,3.53
2023-02-02T22:20:47.373Z,4.73
2023-02-02T22:23:16.231Z,3.23
2023-02-02T22:25:44.109Z,3.40
2023-02-02T22:28:26.094Z,3.47
2023-02-02T22:30:54.487Z,3.50
2023-02-02T22:33:22.087Z,4.03
2023-02-02T22:35:48.919Z,3.10
2023-02-02T22:38:20.774Z,3.17
2023-02-02T22:40:48.745Z,3.47
2023-02-02T22:43:16.636Z,3.50
2023-02-02T22:45:44.550Z,3.10
2023-02-02T22:48:13.199Z,2.23
2023-02-02T22:50:39.956Z,3.10
2023-02-02T22:53:06.645Z,3.73
2023-02-02T22:55:34.014Z,3.10
2023-02-02T22:58:00.703Z,2.67
2023-02-02T23:00:29.936Z,2.97
2023-02-02T23:02:57.235Z,2.97
2023-02-02T23:05:26.025Z,3.27
2023-02-02T23:07:53.770Z,2.83
2023-02-02T23:10:24.342Z,2.57
2023-02-02T23:12:54.974Z,3.00
2023-02-02T23:15:21.892Z,3.30
2023-02-02T23:17:48.650Z,3.53
2023-02-02T23:20:16.636Z,2.20
2023-02-02T23:22:43.465Z,2.40
2023-02-02T23:25:11.451Z,2.70
2023-02-02T23:27:38.276Z,3.20
2023-02-02T23:30:07.470Z,3.57
2023-02-02T23:32:34.548Z,2.33
2023-02-02T23:35:01.299Z,3.00
2023-02-02T23:37:28.143Z,3.77
2023-02-02T23:39:54.925Z,3.17
2023-02-02T23:42:21.647Z,3.00
2023-02-02T23:44:48.296Z,3.30
2023-02-02T23:47:15.128Z,3.10
2023-02-02T23:49:41.804Z,2.67
2023-02-02T23:52:08.795Z,3.30
2023-02-02T23:54:36.107Z,3.43
2023-02-02T23:57:03.507Z,3.10
2023-02-02T23:59:30.272Z,2.63
